Time;durP1;ratioP1;P1;durP2;ratioP2;P2;SDS_P1;SDS_P2;PMS_P1;PMS_P2;Temp;Humidity;BMP_temperature;BMP_pressure;BME280_temperature;BME280_humidity;BME280_pressure;Samples;Min_cycle;Max_cycle;Signal;HPM_P1;HPM_P2
2022/12/08 00:02:15;;;;;;;;;;;;;;;;;;5041510;28;19916;-76
2022/12/08 00:11:16;;;;;;;;;;;;;;;;;;5034429;28;20681;-75
2022/12/08 00:14:02;;;;;;;;;;;;;;;;;;5037288;28;20407;-75
2022/12/08 00:16:49;;;;;;;;;;;;;;;;;;5042973;28;19920;-76
2022/12/08 00:19:35;;;;;;;;;;;;;;;;;;5040105;28;19920;-76
2022/12/08 00:22:22;;;;;;;;;;;;;;;;;;5036678;28;20438;-76
2022/12/08 00:25:08;;;;;;;;;;;;;;;;;;5046115;28;19924;-77
2022/12/08 00:27:55;;;;;;;;;;;;;;;;;;5036704;28;19917;-76
2022/12/08 00:30:41;;;;;;;;;;;;;;;;;;5041785;28;20675;-74
2022/12/08 00:33:28;;;;;;;;;;;;;;;;;;5041252;28;19913;-77
2022/12/08 00:36:14;;;;;;;;;;;;;;;;;;5029289;28;19909;-75
2022/12/08 00:39:01;;;;;;;;;;;;;;;;;;5033789;28;19921;-75
2022/12/08 00:44:53;;;;;;;;;;;;;;;;;;5038735;28;19939;-75
2022/12/08 00:47:39;;;;;;;;;;;;;;;;;;5035325;28;19913;-75
2022/12/08 00:50:27;;;;;;;;;;;;;;;;;;5046877;28;19913;-75
2022/12/08 00:53:14;;;;;;;;;;;;;;;;;;5038808;28;20284;-78
2022/12/08 00:56:00;;;;;;;;;;;;;;;;;;5044761;28;19913;-75
2022/12/08 00:58:47;;;;;;;;;;;;;;;;;;5044420;28;19932;-77
2022/12/08 01:01:33;;;;;;;;;;;;;;;;;;5037259;28;19939;-77
2022/12/08 01:04:20;;;;;;;;;;;;;;;;;;5046928;28;19917;-76
2022/12/08 01:07:06;;;;;;;;;;;;;;;;;;5058292;28;19915;-75
2022/12/08 01:09:52;;;;;;;;;;;;;;;;;;5045979;28;19917;-77
2022/12/08 01:12:39;;;;;;;;;;;;;;;;;;5047392;28;20391;-76
2022/12/08 01:15:25;;;;;;;;;;;;;;;;;;5042910;28;19919;-75
2022/12/08 01:18:12;;;;;;;;;;;;;;;;;;5038518;28;19948;-77
2022/12/08 01:20:58;;;;;;;;;;;;;;;;;;5038893;28;20414;-76
2022/12/08 01:23:45;;;;;;;;;;;;;;;;;;5034659;28;19921;-76
2022/12/08 01:26:31;;;;;;;;;;;;;;;;;;5045184;28;19920;-76
2022/12/08 01:29:18;;;;;;;;;;;;;;;;;;5034792;28;19920;-76
2022/12/08 01:32:04;;;;;;;;;;;;;;;;;;5031300;28;19913;-74
2022/12/08 01:34:51;;;;;;;;;;;;;;;;;;5031872;28;19962;-74
2022/12/08 01:37:37;;;;;;;;;;;;;;;;;;5039865;28;19932;-74
2022/12/08 01:40:24;;;;;;;;;;;;;;;;;;5044408;28;19919;-75
2022/12/08 01:43:10;;;;;;;;;;;;;;;;;;5040513;28;19938;-76
2022/12/08 01:45:57;;;;;;;;;;;;;;;;;;5044495;28;20364;-74
2022/12/08 01:48:43;;;;;;;;;;;;;;;;;;5038790;28;20392;-76
2022/12/08 01:51:30;;;;;;;;;;;;;;;;;;5044263;28;19916;-74
2022/12/08 01:54:16;;;;;;;;;;;;;;;;;;5039549;28;19913;-74
2022/12/08 01:57:03;;;;;;;;;;;;;;;;;;5029609;28;19917;-74
2022/12/08 01:59:50;;;;;;;;;;;;;;;;;;5029688;28;19923;-76
2022/12/08 02:02:36;;;;;;;;;;;;;;;;;;5034572;28;19959;-76
2022/12/08 02:05:23;;;;;;;;;;;;;;;;;;5048967;28;20599;-73
2022/12/08 02:08:09;;;;;;;;;;;;;;;;;;5033588;28;20387;-76
2022/12/08 02:10:56;;;;;;;;;;;;;;;;;;5033379;28;20391;-76
2022/12/08 02:13:42;;;;;;;;;;;;;;;;;;5033752;28;19928;-76
2022/12/08 02:16:29;;;;;;;;;;;;;;;;;;5039374;28;20647;-76
2022/12/08 02:19:15;;;;;;;;;;;;;;;;;;5043121;28;19921;-77
2022/12/08 02:22:02;;;;;;;;;;;;;;;;;;5038060;28;20254;-76
2022/12/08 02:24:48;;;;;;;;;;;;;;;;;;5032229;28;19913;-75
2022/12/08 02:27:35;;;;;;;;;;;;;;;;;;5031090;28;19920;-76
2022/12/08 02:30:21;;;;;;;;;;;;;;;;;;5049290;28;19913;-76
2022/12/08 02:33:08;;;;;;;;;;;;;;;;;;5037144;28;19921;-75
2022/12/08 02:35:55;;;;;;;;;;;;;;;;;;5036660;28;19913;-74
2022/12/08 02:38:41;;;;;;;;;;;;;;;;;;5041001;28;20009;-76
2022/12/08 02:41:27;;;;;;;;;;;;;;;;;;5049699;28;20011;-75
2022/12/08 02:44:14;;;;;;;;;;;;;;;;;;5041558;28;19936;-76
2022/12/08 02:47:00;;;;;;;;;;;;;;;;;;5040972;28;19916;-76
2022/12/08 02:49:47;;;;;;;;;;;;;;;;;;5036561;28;19913;-75
2022/12/08 02:52:33;;;;;;;;;;;;;;;;;;5034669;28;19927;-76
2022/12/08 02:55:20;;;;;;;;;;;;;;;;;;5045310;28;19913;-76
2022/12/08 02:58:06;;;;;;;;;;;;;;;;;;5040366;28;19928;-77
2022/12/08 03:00:53;;;;;;;;;;;;;;;;;;5035968;28;19917;-75
2022/12/08 03:03:39;;;;;;;;;;;;;;;;;;5045387;28;19939;-75
2022/12/08 03:06:26;;;;;;;;;;;;;;;;;;5048351;28;19946;-75
2022/12/08 03:09:12;;;;;;;;;;;;;;;;;;5037380;28;19917;-75
2022/12/08 03:11:59;;;;;;;;;;;;;;;;;;5041682;28;19932;-77
2022/12/08 03:14:45;;;;;;;;;;;;;;;;;;5039911;28;20391;-75
2022/12/08 03:17:32;;;;;;;;;;;;;;;;;;5035184;28;19920;-74
2022/12/08 03:20:18;;;;;;;;;;;;;;;;;;5035815;28;19919;-75
2022/12/08 03:23:05;;;;;;;;;;;;;;;;;;5026852;28;20315;-75
2022/12/08 03:25:51;;;;;;;;;;;;;;;;;;5034204;28;19924;-75
2022/12/08 03:28:38;;;;;;;;;;;;;;;;;;5043694;28;19912;-77
2022/12/08 03:31:24;;;;;;;;;;;;;;;;;;5044062;28;19916;-76
2022/12/08 03:34:11;;;;;;;;;;;;;;;;;;5043644;28;19912;-75
2022/12/08 03:36:57;;;;;;;;;;;;;;;;;;5049123;28;19913;-76
2022/12/08 03:39:44;;;;;;;;;;;;;;;;;;5047069;28;19920;-77
2022/12/08 03:42:31;;;;;;;;;;;;;;;;;;5042628;28;19920;-76
2022/12/08 03:45:17;;;;;;;;;;;;;;;;;;5046976;28;19917;-76
2022/12/08 03:48:04;;;;;;;;;;;;;;;;;;5042549;28;19919;-76
2022/12/08 03:50:50;;;;;;;;;;;;;;;;;;5048407;28;20383;-74
2022/12/08 03:53:37;;;;;;;;;;;;;;;;;;5043677;28;19913;-76
2022/12/08 03:56:23;;;;;;;;;;;;;;;;;;5045311;28;19920;-75
2022/12/08 03:59:10;;;;;;;;;;;;;;;;;;5046433;28;19921;-77
2022/12/08 04:01:56;;;;;;;;;;;;;;;;;;5045441;28;19912;-75
2022/12/08 04:04:43;;;;;;;;;;;;;;;;;;5048952;28;19971;-77
2022/12/08 04:07:29;;;;;;;;;;;;;;;;;;5045440;28;19917;-76
2022/12/08 04:10:16;;;;;;;;;;;;;;;;;;5050443;28;19916;-77
2022/12/08 04:13:02;;;;;;;;;;;;;;;;;;5053706;28;19913;-75
2022/12/08 04:15:51;;;;;;;;;;;;;;;;;;5018575;28;19924;-77
2022/12/08 04:18:38;;;;;;;;;;;;;;;;;;5045515;28;19920;-74
2022/12/08 04:21:24;;;;;;;;;;;;;;;;;;5031487;28;19921;-75
2022/12/08 04:24:10;;;;;;;;;;;;;;;;;;5042723;28;19952;-76
2022/12/08 04:26:57;;;;;;;;;;;;;;;;;;5045553;28;20542;-76
2022/12/08 04:29:43;;;;;;;;;;;;;;;;;;5045984;28;19921;-75
2022/12/08 04:32:30;;;;;;;;;;;;;;;;;;5041656;28;19935;-75
2022/12/08 04:35:16;;;;;;;;;;;;;;;;;;5040360;28;19921;-76
2022/12/08 04:38:03;;;;;;;;;;;;;;;;;;5040147;28;19928;-75
2022/12/08 04:40:49;;;;;;;;;;;;;;;;;;5033162;28;19919;-75
2022/12/08 04:43:36;;;;;;;;;;;;;;;;;;5042730;28;19912;-77
2022/12/08 04:46:22;;;;;;;;;;;;;;;;;;5043655;28;20383;-75
2022/12/08 04:49:09;;;;;;;;;;;;;;;;;;5043142;28;19936;-75
2022/12/08 04:51:55;;;;;;;;;;;;;;;;;;5044987;28;19913;-76
2022/12/08 04:54:42;;;;;;;;;;;;;;;;;;5043353;28;19919;-74
2022/12/08 04:57:28;;;;;;;;;;;;;;;;;;5036378;28;19971;-74
2022/12/08 05:00:15;;;;;;;;;;;;;;;;;;5040923;28;19920;-75
2022/12/08 05:03:01;;;;;;;;;;;;;;;;;;5033505;28;19920;-76
2022/12/08 05:05:48;;;;;;;;;;;;;;;;;;5018016;28;19932;-75
2022/12/08 05:08:34;;;;;;;;;;;;;;;;;;5038410;28;19941;-76
2022/12/08 05:11:21;;;;;;;;;;;;;;;;;;5041510;28;19940;-74
2022/12/08 05:14:08;;;;;;;;;;;;;;;;;;5035729;28;19917;-76
2022/12/08 05:16:54;;;;;;;;;;;;;;;;;;5016125;28;19917;-75
2022/12/08 05:19:40;;;;;;;;;;;;;;;;;;5040437;28;19925;-77
2022/12/08 05:22:27;;;;;;;;;;;;;;;;;;5043527;28;19920;-75
2022/12/08 05:25:13;;;;;;;;;;;;;;;;;;5041340;28;19925;-77
2022/12/08 05:28:00;;;;;;;;;;;;;;;;;;5041693;28;20276;-73
2022/12/08 05:30:46;;;;;;;;;;;;;;;;;;5037926;28;19917;-74
2022/12/08 05:33:33;;;;;;;;;;;;;;;;;;5031905;28;19923;-75
2022/12/08 05:36:22;;;;;;;;;;;;;;;;;;5039439;28;20396;-76
2022/12/08 05:39:09;;;;;;;;;;;;;;;;;;5034382;28;19921;-74
2022/12/08 05:41:55;;;;;;;;;;;;;;;;;;5032443;28;19936;-76
2022/12/08 05:44:42;;;;;;;;;;;;;;;;;;5035413;28;19919;-73
2022/12/08 05:47:28;;;;;;;;;;;;;;;;;;5029395;28;19909;-74
2022/12/08 05:50:15;;;;;;;;;;;;;;;;;;5037068;28;19920;-74
2022/12/08 05:53:01;;;;;;;;;;;;;;;;;;5043679;28;19923;-74
2022/12/08 05:55:48;;;;;;;;;;;;;;;;;;5031514;28;20299;-75
2022/12/08 05:58:34;;;;;;;;;;;;;;;;;;5030430;28;19928;-73
2022/12/08 06:01:21;;;;;;;;;;;;;;;;;;5043894;28;19921;-74
2022/12/08 06:04:07;;;;;;;;;;;;;;;;;;5036292;28;19960;-74
2022/12/08 06:06:54;;;;;;;;;;;;;;;;;;5030098;28;19924;-74
2022/12/08 06:09:41;;;;;;;;;;;;;;;;;;5029816;28;19921;-75
2022/12/08 06:12:27;;;;;;;;;;;;;;;;;;5032047;28;19935;-74
2022/12/08 06:15:14;;;;;;;;;;;;;;;;;;5044938;28;19926;-74
2022/12/08 06:18:00;;;;;;;;;;;;;;;;;;5028195;28;20000;-75
2022/12/08 06:20:46;;;;;;;;;;;;;;;;;;5040764;28;19917;-75
2022/12/08 06:23:33;;;;;;;;;;;;;;;;;;5027922;28;19925;-77
2022/12/08 06:26:19;;;;;;;;;;;;;;;;;;5040860;28;19913;-78
2022/12/08 06:29:08;;;;;;;;;;;;;;;;;;5033038;28;20333;-78
2022/12/08 06:31:54;;;;;;;;;;;;;;;;;;5027207;28;19919;-74
2022/12/08 06:34:41;;;;;;;;;;;;;;;;;;5037904;28;19917;-76
2022/12/08 06:37:27;;;;;;;;;;;;;;;;;;5029673;28;19935;-75
2022/12/08 06:40:14;;;;;;;;;;;;;;;;;;5036524;28;20357;-76
2022/12/08 06:43:00;;;;;;;;;;;;;;;;;;5044089;28;19919;-76
2022/12/08 06:45:47;;;;;;;;;;;;;;;;;;5042032;28;19912;-76
2022/12/08 06:48:33;;;;;;;;;;;;;;;;;;5036087;28;19936;-73
2022/12/08 06:51:20;;;;;;;;;;;;;;;;;;5043387;28;20380;-76
2022/12/08 06:54:07;;;;;;;;;;;;;;;;;;5021828;28;19920;-77
2022/12/08 06:56:53;;;;;;;;;;;;;;;;;;5043447;28;19917;-76
2022/12/08 06:59:40;;;;;;;;;;;;;;;;;;5034835;28;20593;-75
2022/12/08 07:02:26;;;;;;;;;;;;;;;;;;5041452;28;19913;-76
2022/12/08 07:05:14;;;;;;;;;;;;;;;;;;5046090;28;19936;-75
2022/12/08 07:08:00;;;;;;;;;;;;;;;;;;5018951;28;19917;-75
2022/12/08 07:10:47;;;;;;;;;;;;;;;;;;5041865;28;20431;-74
2022/12/08 07:13:33;;;;;;;;;;;;;;;;;;5037505;28;19920;-76
2022/12/08 07:16:20;;;;;;;;;;;;;;;;;;5033258;28;19908;-77
2022/12/08 07:19:06;;;;;;;;;;;;;;;;;;5038426;28;19925;-77
2022/12/08 07:21:53;;;;;;;;;;;;;;;;;;5043253;28;19920;-76
2022/12/08 07:24:40;;;;;;;;;;;;;;;;;;5043435;28;19924;-77
2022/12/08 07:27:26;;;;;;;;;;;;;;;;;;5030676;28;20312;-76
2022/12/08 07:30:13;;;;;;;;;;;;;;;;;;5023424;28;19913;-77
2022/12/08 07:33:00;;;;;;;;;;;;;;;;;;5028131;28;19924;-77
2022/12/08 07:35:46;;;;;;;;;;;;;;;;;;5038551;28;19967;-76
2022/12/08 07:38:33;;;;;;;;;;;;;;;;;;5042088;28;20423;-77
2022/12/08 07:41:19;;;;;;;;;;;;;;;;;;5039223;28;19913;-77
2022/12/08 07:44:06;;;;;;;;;;;;;;;;;;5040753;28;19919;-77
2022/12/08 07:46:52;;;;;;;;;;;;;;;;;;5023357;28;19913;-76
2022/12/08 07:49:39;;;;;;;;;;;;;;;;;;5043272;28;19916;-77
2022/12/08 07:52:25;;;;;;;;;;;;;;;;;;5038254;28;19917;-77
2022/12/08 07:55:12;;;;;;;;;;;;;;;;;;5044509;28;19913;-77
2022/12/08 07:57:58;;;;;;;;;;;;;;;;;;5042741;28;20391;-76
2022/12/08 08:00:45;;;;;;;;;;;;;;;;;;5041070;28;19931;-77
2022/12/08 08:03:31;;;;;;;;;;;;;;;;;;5042204;28;19913;-76
2022/12/08 08:06:18;;;;;;;;;;;;;;;;;;5037793;28;19913;-75
2022/12/08 08:09:04;;;;;;;;;;;;;;;;;;5040019;28;19927;-76
2022/12/08 08:11:51;;;;;;;;;;;;;;;;;;5042523;28;19920;-77
2022/12/08 08:14:37;;;;;;;;;;;;;;;;;;5043727;28;19917;-76
2022/12/08 08:17:24;;;;;;;;;;;;;;;;;;5029830;28;19935;-76
2022/12/08 08:20:10;;;;;;;;;;;;;;;;;;5043338;28;19940;-77
2022/12/08 08:22:57;;;;;;;;;;;;;;;;;;5039640;28;19924;-75
2022/12/08 08:25:43;;;;;;;;;;;;;;;;;;5033923;28;20404;-77
2022/12/08 08:28:30;;;;;;;;;;;;;;;;;;5036036;28;20284;-76
2022/12/08 08:31:16;;;;;;;;;;;;;;;;;;5041319;28;20383;-76
2022/12/08 08:34:05;;;;;;;;;;;;;;;;;;5039882;28;19917;-75
2022/12/08 08:36:51;;;;;;;;;;;;;;;;;;5041884;28;19920;-77
2022/12/08 08:39:38;;;;;;;;;;;;;;;;;;5038854;28;20315;-76
2022/12/08 08:42:24;;;;;;;;;;;;;;;;;;5025723;28;19912;-76
2022/12/08 08:45:11;;;;;;;;;;;;;;;;;;5032709;28;19924;-77
2022/12/08 08:47:57;;;;;;;;;;;;;;;;;;5035438;28;19913;-78
2022/12/08 08:50:44;;;;;;;;;;;;;;;;;;5039475;28;19913;-77
2022/12/08 08:53:30;;;;;;;;;;;;;;;;;;5033788;28;19920;-76
2022/12/08 08:56:19;;;;;;;;;;;;;;;;;;5040442;28;19916;-76
2022/12/08 08:59:06;;;;;;;;;;;;;;;;;;5038055;28;20372;-78
2022/12/08 09:01:52;;;;;;;;;;;;;;;;;;5042241;28;19912;-77
2022/12/08 09:04:39;;;;;;;;;;;;;;;;;;5039281;28;19917;-78
2022/12/08 09:07:25;;;;;;;;;;;;;;;;;;5024026;28;19917;-76
2022/12/08 09:10:12;;;;;;;;;;;;;;;;;;5040112;28;19936;-77
2022/12/08 09:12:58;;;;;;;;;;;;;;;;;;5022972;28;19912;-78
2022/12/08 09:15:45;;;;;;;;;;;;;;;;;;5034890;28;19925;-78
2022/12/08 09:18:32;;;;;;;;;;;;;;;;;;5028719;28;19928;-76
2022/12/08 09:21:21;;;;;;;;;;;;;;;;;;5029174;28;19917;-75
2022/12/08 09:24:14;;;;;;;;;;;;;;;;;;5031523;28;20296;-76
2022/12/08 09:27:00;;;;;;;;;;;;;;;;;;5038186;28;20391;-78
2022/12/08 09:29:47;;;;;;;;;;;;;;;;;;5041515;28;19909;-76
2022/12/08 09:32:33;;;;;;;;;;;;;;;;;;5035269;28;19940;-78
2022/12/08 09:35:20;;;;;;;;;;;;;;;;;;5022339;28;19916;-76
2022/12/08 09:38:06;;;;;;;;;;;;;;;;;;5042973;28;19917;-77
2022/12/08 09:40:53;;;;;;;;;;;;;;;;;;5034298;28;19923;-76
2022/12/08 09:43:39;;;;;;;;;;;;;;;;;;5041349;28;21052;-77
2022/12/08 09:46:26;;;;;;;;;;;;;;;;;;5042616;28;19917;-77
2022/12/08 09:49:12;;;;;;;;;;;;;;;;;;5045229;28;19924;-76
2022/12/08 09:51:59;;;;;;;;;;;;;;;;;;5035881;28;20390;-76
2022/12/08 09:54:45;;;;;;;;;;;;;;;;;;5029306;28;19913;-77
2022/12/08 09:57:32;;;;;;;;;;;;;;;;;;5032716;28;19923;-76
2022/12/08 10:00:18;;;;;;;;;;;;;;;;;;5040286;28;20386;-78
2022/12/08 10:03:04;;;;;;;;;;;;;;;;;;5030474;28;19913;-77
2022/12/08 10:05:51;;;;;;;;;;;;;;;;;;5035407;28;19927;-78
2022/12/08 10:08:37;;;;;;;;;;;;;;;;;;5040041;28;19919;-76
2022/12/08 10:11:24;;;;;;;;;;;;;;;;;;5034170;28;20665;-77
2022/12/08 10:14:10;;;;;;;;;;;;;;;;;;5034716;28;19908;-77
2022/12/08 10:16:57;;;;;;;;;;;;;;;;;;5027450;28;19967;-76
2022/12/08 10:19:44;;;;;;;;;;;;;;;;;;5036672;28;19935;-76
2022/12/08 10:22:31;;;;;;;;;;;;;;;;;;5031090;28;19923;-77
2022/12/08 10:25:17;;;;;;;;;;;;;;;;;;5033343;28;19917;-77
2022/12/08 10:28:04;;;;;;;;;;;;;;;;;;5042811;28;19917;-74
2022/12/08 10:30:50;;;;;;;;;;;;;;;;;;5039799;28;19921;-75
2022/12/08 10:33:37;;;;;;;;;;;;;;;;;;5040924;28;20752;-79
2022/12/08 10:36:23;;;;;;;;;;;;;;;;;;5041799;28;19919;-76
2022/12/08 10:39:10;;;;;;;;;;;;;;;;;;5049023;28;19940;-76
2022/12/08 10:41:56;;;;;;;;;;;;;;;;;;5042374;28;19935;-75
2022/12/08 10:44:43;;;;;;;;;;;;;;;;;;5040476;28;20422;-78
2022/12/08 10:47:29;;;;;;;;;;;;;;;;;;5046034;28;19917;-77
2022/12/08 10:50:17;;;;;;;;;;;;;;;;;;5041664;28;19909;-77
2022/12/08 10:53:04;;;;;;;;;;;;;;;;;;5045581;28;19913;-77
2022/12/08 10:55:50;;;;;;;;;;;;;;;;;;5033030;28;19913;-78
2022/12/08 10:58:39;;;;;;;;;;;;;;;;;;5034084;28;19932;-78
2022/12/08 11:01:25;;;;;;;;;;;;;;;;;;5042545;28;19919;-77
2022/12/08 11:04:12;;;;;;;;;;;;;;;;;;5037875;28;19916;-78
2022/12/08 11:06:58;;;;;;;;;;;;;;;;;;5044304;28;19932;-78
2022/12/08 11:09:47;;;;;;;;;;;;;;;;;;5045074;28;19947;-77
2022/12/08 11:12:35;;;;;;;;;;;;;;;;;;5047026;28;19913;-78
2022/12/08 11:15:21;;;;;;;;;;;;;;;;;;5043289;28;19935;-77
2022/12/08 11:18:08;;;;;;;;;;;;;;;;;;5043493;28;19993;-78
2022/12/08 11:20:55;;;;;;;;;;;;;;;;;;5041670;28;20352;-77
2022/12/08 11:23:41;;;;;;;;;;;;;;;;;;5047233;28;19931;-76
2022/12/08 11:26:28;;;;;;;;;;;;;;;;;;5041223;28;19924;-77
2022/12/08 11:29:16;;;;;;;;;;;;;;;;;;5036983;28;19924;-77
2022/12/08 11:32:02;;;;;;;;;;;;;;;;;;5040115;28;20300;-78
2022/12/08 11:34:49;;;;;;;;;;;;;;;;;;5047154;28;19932;-78
2022/12/08 11:37:35;;;;;;;;;;;;;;;;;;5043661;28;19917;-77
2022/12/08 11:40:22;;;;;;;;;;;;;;;;;;5045309;28;19929;-78
2022/12/08 11:43:08;;;;;;;;;;;;;;;;;;5044730;28;20292;-76
2022/12/08 11:45:55;;;;;;;;;;;;;;;;;;5045949;28;19924;-76
2022/12/08 11:48:41;;;;;;;;;;;;;;;;;;5042700;28;19919;-77
2022/12/08 11:51:28;;;;;;;;;;;;;;;;;;5043572;28;19924;-78
2022/12/08 11:54:15;;;;;;;;;;;;;;;;;;5048544;28;19916;-79
2022/12/08 11:57:01;;;;;;;;;;;;;;;;;;5042648;28;20224;-77
2022/12/08 11:59:48;;;;;;;;;;;;;;;;;;5043001;28;19924;-78
2022/12/08 12:02:35;;;;;;;;;;;;;;;;;;5043634;28;19921;-79
2022/12/08 12:05:21;;;;;;;;;;;;;;;;;;5032516;28;20380;-78
2022/12/08 12:08:07;;;;;;;;;;;;;;;;;;5034791;28;19919;-77
2022/12/08 12:10:54;;;;;;;;;;;;;;;;;;5042626;28;19921;-82
2022/12/08 12:13:40;;;;;;;;;;;;;;;;;;5037139;28;19931;-78
2022/12/08 12:16:27;;;;;;;;;;;;;;;;;;5039522;28;19917;-78
2022/12/08 12:19:14;;;;;;;;;;;;;;;;;;5042237;28;19925;-79
2022/12/08 12:22:00;;;;;;;;;;;;;;;;;;5043585;28;19917;-77
2022/12/08 12:24:46;;;;;;;;;;;;;;;;;;5035806;28;19962;-77
2022/12/08 12:27:33;;;;;;;;;;;;;;;;;;5040953;28;20299;-78
2022/12/08 12:30:19;;;;;;;;;;;;;;;;;;5023616;28;19920;-77
2022/12/08 12:33:10;;;;;;;;;;;;;;;;;;5027450;28;19923;-78
2022/12/08 12:35:57;;;;;;;;;;;;;;;;;;5041452;28;19935;-78
2022/12/08 12:39:04;;;;;;;;;;;;;;;;;;5034657;28;19931;-77
2022/12/08 12:41:51;;;;;;;;;;;;;;;;;;5041973;28;19917;-77
2022/12/08 12:44:38;;;;;;;;;;;;;;;;;;5046513;28;20284;-76
2022/12/08 12:47:24;;;;;;;;;;;;;;;;;;5045032;28;20365;-75
2022/12/08 12:50:10;;;;;;;;;;;;;;;;;;5043648;28;19917;-77
2022/12/08 12:52:57;;;;;;;;;;;;;;;;;;5045325;28;19921;-76
2022/12/08 12:55:44;;;;;;;;;;;;;;;;;;5045073;28;19923;-77
2022/12/08 12:58:30;;;;;;;;;;;;;;;;;;5046597;28;19920;-75
2022/12/08 13:01:17;;;;;;;;;;;;;;;;;;5053881;28;19923;-77
2022/12/08 13:04:04;;;;;;;;;;;;;;;;;;5052186;28;19932;-79
2022/12/08 13:06:51;;;;;;;;;;;;;;;;;;5043811;28;19914;-76
2022/12/08 13:09:38;;;;;;;;;;;;;;;;;;5049358;28;19924;-78
2022/12/08 13:12:25;;;;;;;;;;;;;;;;;;5051595;28;20439;-77
2022/12/08 13:15:11;;;;;;;;;;;;;;;;;;5023098;28;20007;-76
2022/12/08 13:17:58;;;;;;;;;;;;;;;;;;5043405;28;20327;-77
2022/12/08 13:20:44;;;;;;;;;;;;;;;;;;5042784;28;19921;-76
2022/12/08 13:23:31;;;;;;;;;;;;;;;;;;5045563;28;19921;-76
2022/12/08 13:26:17;;;;;;;;;;;;;;;;;;5043037;28;19924;-76
2022/12/08 13:29:04;;;;;;;;;;;;;;;;;;5043008;28;19913;-77
2022/12/08 13:31:50;;;;;;;;;;;;;;;;;;5041077;28;19913;-77
2022/12/08 13:34:38;;;;;;;;;;;;;;;;;;5044050;28;19921;-77
2022/12/08 13:37:24;;;;;;;;;;;;;;;;;;5038296;28;19916;-76
2022/12/08 13:40:11;;;;;;;;;;;;;;;;;;5041277;28;20413;-76
2022/12/08 13:43:00;;;;;;;;;;;;;;;;;;5027859;28;19917;-77
2022/12/08 13:45:47;;;;;;;;;;;;;;;;;;5039817;28;19913;-78
2022/12/08 13:48:33;;;;;;;;;;;;;;;;;;5040471;28;20284;-77
2022/12/08 13:51:20;;;;;;;;;;;;;;;;;;5024639;28;19917;-77
2022/12/08 13:54:06;;;;;;;;;;;;;;;;;;5036895;28;20267;-77
2022/12/08 13:56:53;;;;;;;;;;;;;;;;;;5036861;28;19921;-76
2022/12/08 13:59:39;;;;;;;;;;;;;;;;;;5037336;28;19917;-77
2022/12/08 14:02:26;;;;;;;;;;;;;;;;;;5037971;28;19951;-78
2022/12/08 14:05:13;;;;;;;;;;;;;;;;;;5038468;28;19921;-77
2022/12/08 14:07:59;;;;;;;;;;;;;;;;;;5038831;28;19924;-76
2022/12/08 14:10:45;;;;;;;;;;;;;;;;;;5037863;28;20431;-78
2022/12/08 14:13:32;;;;;;;;;;;;;;;;;;5031858;28;19933;-77
2022/12/08 14:16:18;;;;;;;;;;;;;;;;;;5033169;28;19913;-77
2022/12/08 14:19:05;;;;;;;;;;;;;;;;;;5039014;28;20280;-78
2022/12/08 14:21:51;;;;;;;;;;;;;;;;;;5029974;28;20497;-76
2022/12/08 14:24:38;;;;;;;;;;;;;;;;;;5041200;28;19929;-77
2022/12/08 14:27:24;;;;;;;;;;;;;;;;;;5039506;28;19939;-77
2022/12/08 14:30:14;;;;;;;;;;;;;;;;;;5043997;28;19947;-77
2022/12/08 14:33:01;;;;;;;;;;;;;;;;;;5040653;28;19935;-78
2022/12/08 14:35:47;;;;;;;;;;;;;;;;;;5035808;28;19923;-76
2022/12/08 14:38:34;;;;;;;;;;;;;;;;;;5033704;28;19916;-76
2022/12/08 14:41:20;;;;;;;;;;;;;;;;;;5032625;28;19913;-77
2022/12/08 14:44:07;;;;;;;;;;;;;;;;;;5042047;28;19920;-77
2022/12/08 14:46:53;;;;;;;;;;;;;;;;;;5036320;28;19956;-77
2022/12/08 14:49:40;;;;;;;;;;;;;;;;;;5040231;28;20407;-76
2022/12/08 14:52:26;;;;;;;;;;;;;;;;;;5036304;28;19928;-77
2022/12/08 14:55:13;;;;;;;;;;;;;;;;;;5026005;28;20478;-76
2022/12/08 14:57:59;;;;;;;;;;;;;;;;;;5040752;28;19924;-77
2022/12/08 15:00:46;;;;;;;;;;;;;;;;;;5041610;28;19932;-76
2022/12/08 15:03:32;;;;;;;;;;;;;;;;;;5037506;28;19916;-79
2022/12/08 15:06:19;;;;;;;;;;;;;;;;;;5042536;28;19912;-87
2022/12/08 15:09:05;;;;;;;;;;;;;;;;;;5041789;28;19913;-79
2022/12/08 15:11:52;;;;;;;;;;;;;;;;;;5040941;28;20287;-79
2022/12/08 15:14:38;;;;;;;;;;;;;;;;;;5046615;28;20365;-78
2022/12/08 15:17:25;;;;;;;;;;;;;;;;;;5042926;28;19924;-78
2022/12/08 15:20:11;;;;;;;;;;;;;;;;;;5045129;28;19924;-77
2022/12/08 15:22:58;;;;;;;;;;;;;;;;;;5041812;28;20514;-79
2022/12/08 15:25:44;;;;;;;;;;;;;;;;;;5037588;28;20407;-75
2022/12/08 15:28:31;;;;;;;;;;;;;;;;;;5045639;28;20565;-76
2022/12/08 15:31:17;;;;;;;;;;;;;;;;;;5042057;28;19923;-75
2022/12/08 15:34:04;;;;;;;;;;;;;;;;;;5038269;28;19916;-75
2022/12/08 15:36:50;;;;;;;;;;;;;;;;;;5045592;28;19913;-76
2022/12/08 15:39:37;;;;;;;;;;;;;;;;;;5039613;28;19925;-77
2022/12/08 15:42:23;;;;;;;;;;;;;;;;;;5043357;28;20277;-76
2022/12/08 15:45:09;;;;;;;;;;;;;;;;;;5044927;28;20313;-76
2022/12/08 15:47:56;;;;;;;;;;;;;;;;;;5043667;28;20384;-76
2022/12/08 15:50:43;;;;;;;;;;;;;;;;;;5040695;28;19924;-77
2022/12/08 15:53:29;;;;;;;;;;;;;;;;;;5042218;28;20400;-76
2022/12/08 15:56:16;;;;;;;;;;;;;;;;;;5035634;28;19921;-77
2022/12/08 15:59:03;;;;;;;;;;;;;;;;;;5040853;28;19975;-77
2022/12/08 16:01:49;;;;;;;;;;;;;;;;;;5038877;28;20384;-77
2022/12/08 16:04:35;;;;;;;;;;;;;;;;;;5041719;28;19917;-81
2022/12/08 16:07:22;;;;;;;;;;;;;;;;;;5037481;28;19921;-79
2022/12/08 16:10:08;;;;;;;;;;;;;;;;;;5033045;28;19917;-80
2022/12/08 16:16:01;;;;;;;;;;;;;;;;;;5042833;28;19927;-81
2022/12/08 16:18:47;;;;;;;;;;;;;;;;;;5039447;28;19936;-80
2022/12/08 16:21:34;;;;;;;;;;;;;;;;;;5040828;28;19923;-81
2022/12/08 16:24:20;;;;;;;;;;;;;;;;;;5039434;28;19967;-80
2022/12/08 16:27:07;;;;;;;;;;;;;;;;;;5043421;28;19920;-79
2022/12/08 16:30:11;;;;;;;;;;;;;;;;;;5046963;28;19923;-80
2022/12/08 16:32:58;;;;;;;;;;;;;;;;;;5038248;28;20506;-79
2022/12/08 16:35:44;;;;;;;;;;;;;;;;;;5040452;28;19916;-79
2022/12/08 16:38:30;;;;;;;;;;;;;;;;;;5040720;28;19917;-79
2022/12/08 16:44:22;;;;;;;;;;;;;;;;;;5038800;28;19916;-81
2022/12/08 16:47:10;;;;;;;;;;;;;;;;;;5041211;28;19919;-80
2022/12/08 16:49:56;;;;;;;;;;;;;;;;;;5042770;28;19913;-80
2022/12/08 16:52:43;;;;;;;;;;;;;;;;;;5024060;28;19917;-79
2022/12/08 16:55:29;;;;;;;;;;;;;;;;;;5045601;28;19913;-79
2022/12/08 16:58:17;;;;;;;;;;;;;;;;;;5040355;28;19921;-78
2022/12/08 17:01:03;;;;;;;;;;;;;;;;;;5045689;28;20710;-80
2022/12/08 17:03:50;;;;;;;;;;;;;;;;;;5028913;28;19919;-80
2022/12/08 17:06:36;;;;;;;;;;;;;;;;;;5040352;28;19913;-79
2022/12/08 17:09:23;;;;;;;;;;;;;;;;;;5041722;28;19927;-79
2022/12/08 17:12:09;;;;;;;;;;;;;;;;;;5040260;28;19919;-79
2022/12/08 17:14:56;;;;;;;;;;;;;;;;;;5039093;28;19924;-79
2022/12/08 17:17:42;;;;;;;;;;;;;;;;;;5039745;28;19925;-79
2022/12/08 17:20:29;;;;;;;;;;;;;;;;;;5038255;28;20295;-80
2022/12/08 17:23:15;;;;;;;;;;;;;;;;;;5037845;28;19931;-79
2022/12/08 17:26:02;;;;;;;;;;;;;;;;;;5025591;28;19913;-81
2022/12/08 17:28:49;;;;;;;;;;;;;;;;;;5021613;28;20276;-79
2022/12/08 17:31:35;;;;;;;;;;;;;;;;;;5045158;28;19917;-77
2022/12/08 17:34:22;;;;;;;;;;;;;;;;;;5044469;28;19917;-81
2022/12/08 17:37:08;;;;;;;;;;;;;;;;;;5039517;28;20421;-80
2022/12/08 17:39:55;;;;;;;;;;;;;;;;;;5040917;28;19924;-80
2022/12/08 17:42:41;;;;;;;;;;;;;;;;;;5027208;28;19912;-79
2022/12/08 17:45:28;;;;;;;;;;;;;;;;;;5041596;28;19916;-80
2022/12/08 17:48:14;;;;;;;;;;;;;;;;;;5038418;28;19917;-80
2022/12/08 17:51:01;;;;;;;;;;;;;;;;;;5040959;28;20458;-78
2022/12/08 17:53:53;;;;;;;;;;;;;;;;;;5039197;28;19917;-80
2022/12/08 17:56:40;;;;;;;;;;;;;;;;;;5038752;28;19924;-78
2022/12/08 17:59:26;;;;;;;;;;;;;;;;;;5036688;28;20299;-79
2022/12/08 18:02:13;;;;;;;;;;;;;;;;;;5034660;28;19921;-79
2022/12/08 18:05:00;;;;;;;;;;;;;;;;;;5042448;28;19917;-79
2022/12/08 18:07:47;;;;;;;;;;;;;;;;;;5035450;28;19928;-76
2022/12/08 18:10:33;;;;;;;;;;;;;;;;;;5026184;28;19936;-81
2022/12/08 18:13:20;;;;;;;;;;;;;;;;;;5039802;28;19917;-78
2022/12/08 18:16:06;;;;;;;;;;;;;;;;;;5041542;28;19916;-79
2022/12/08 18:18:53;;;;;;;;;;;;;;;;;;5036330;28;19923;-78
2022/12/08 18:21:39;;;;;;;;;;;;;;;;;;5042470;28;19939;-77
2022/12/08 18:24:26;;;;;;;;;;;;;;;;;;5035644;28;19928;-77
2022/12/08 18:27:13;;;;;;;;;;;;;;;;;;5041511;28;19919;-78
2022/12/08 18:30:00;;;;;;;;;;;;;;;;;;5042599;28;19912;-77
2022/12/08 18:32:47;;;;;;;;;;;;;;;;;;5034644;28;19944;-76
2022/12/08 18:35:33;;;;;;;;;;;;;;;;;;5033689;28;19913;-77
2022/12/08 18:38:20;;;;;;;;;;;;;;;;;;5038179;28;19924;-77
2022/12/08 18:41:06;;;;;;;;;;;;;;;;;;5046060;28;20380;-79
2022/12/08 18:43:53;;;;;;;;;;;;;;;;;;5032719;28;19916;-75
2022/12/08 18:46:39;;;;;;;;;;;;;;;;;;5045193;28;19936;-77
2022/12/08 18:49:26;;;;;;;;;;;;;;;;;;5020897;28;20395;-76
2022/12/08 18:52:12;;;;;;;;;;;;;;;;;;5030131;28;19917;-76
2022/12/08 18:54:59;;;;;;;;;;;;;;;;;;5043491;28;19924;-77
2022/12/08 18:57:45;;;;;;;;;;;;;;;;;;5041577;28;19925;-85
2022/12/08 19:00:32;;;;;;;;;;;;;;;;;;5032496;28;19928;-83
2022/12/08 19:03:18;;;;;;;;;;;;;;;;;;5026461;28;19924;-84
2022/12/08 19:06:05;;;;;;;;;;;;;;;;;;5047518;28;20701;-84
2022/12/08 19:08:51;;;;;;;;;;;;;;;;;;5041794;28;19913;-84
2022/12/08 19:11:38;;;;;;;;;;;;;;;;;;5031296;28;19913;-85
2022/12/08 19:14:24;;;;;;;;;;;;;;;;;;5049418;28;19917;-83